Sheridan, Indiana
Current Conditions -  °F | °C
As of 11:35 AM on Saturday 22 Nov 2014 (Local Time) from KTYQ Reporting Station
Overcast Overcast  
Wind Chill: 43°   Ceiling: 4600
Heat Index: 49°   Visibility: 10mi
Dew Point: 40°   Wind: 16mph
Humidity: 73%   Direction: 190°S
Pressure: 30.12"   Gusts: NA
Location:  40.14°N, 86.22°W
Report Text: KTYQ 221635Z AUTO 19014KT 10SM OVC046 09/05 A3012 RMK AO2 T00920046
Loading
Personal Weather Stations






























Interactive Weather Map New forecast layout! Learn more

10-Day Weather Forecast

Advertisements
Track Severe Weather on mobile